sensor_id;sensor_type;location;lat;lon;timestamp;pressure;altitude;pressure_sealevel;temperature;humidity
50166;BME280;36071;48.140;11.516;2023-01-27T00:03:28;95530.0;;;-0.7;86.1
50166;BME280;36071;48.140;11.516;2023-01-27T00:08:28;95540.0;;;-0.7;86.2
50166;BME280;36071;48.140;11.516;2023-01-27T00:13:28;95540.0;;;-0.7;86.6
50166;BME280;36071;48.140;11.516;2023-01-27T00:18:28;95530.0;;;-0.7;86.6
50166;BME280;36071;48.140;11.516;2023-01-27T00:23:28;95530.0;;;-0.8;87.0
50166;BME280;36071;48.140;11.516;2023-01-27T00:28:28;95540.0;;;-0.7;86.8
50166;BME280;36071;48.140;11.516;2023-01-27T00:33:28;95520.0;;;-0.7;88.0
50166;BME280;36071;48.140;11.516;2023-01-27T00:38:29;95520.0;;;-0.6;88.3
50166;BME280;36071;48.140;11.516;2023-01-27T00:43:28;95520.0;;;-0.6;87.3
50166;BME280;36071;48.140;11.516;2023-01-27T00:48:28;95530.0;;;-0.7;89.2
50166;BME280;36071;48.140;11.516;2023-01-27T00:53:28;95530.0;;;-0.7;88.8
50166;BME280;36071;48.140;11.516;2023-01-27T00:58:28;95520.0;;;-0.6;89.1
50166;BME280;36071;48.140;11.516;2023-01-27T01:03:29;95540.0;;;-0.6;90.0
50166;BME280;36071;48.140;11.516;2023-01-27T01:08:29;95540.0;;;-0.6;89.0
50166;BME280;36071;48.140;11.516;2023-01-27T01:13:28;95550.0;;;-0.7;88.7
50166;BME280;36071;48.140;11.516;2023-01-27T01:18:28;95540.0;;;-0.8;89.5
50166;BME280;36071;48.140;11.516;2023-01-27T01:23:28;95540.0;;;-0.7;89.7
50166;BME280;36071;48.140;11.516;2023-01-27T01:28:28;95550.0;;;-0.7;89.1
50166;BME280;36071;48.140;11.516;2023-01-27T01:33:28;95550.0;;;-0.7;88.2
50166;BME280;36071;48.140;11.516;2023-01-27T01:38:28;95550.0;;;-0.7;88.0
50166;BME280;36071;48.140;11.516;2023-01-27T01:43:28;95540.0;;;-0.6;88.9
50166;BME280;36071;48.140;11.516;2023-01-27T01:48:31;95530.0;;;-0.7;89.1
50166;BME280;36071;48.140;11.516;2023-01-27T01:53:29;95520.0;;;-0.8;89.0
50166;BME280;36071;48.140;11.516;2023-01-27T01:58:28;95510.0;;;-0.7;88.8
50166;BME280;36071;48.140;11.516;2023-01-27T02:03:28;95510.0;;;-0.8;88.2
50166;BME280;36071;48.140;11.516;2023-01-27T02:08:29;95520.0;;;-0.7;88.7
50166;BME280;36071;48.140;11.516;2023-01-27T02:13:29;95530.0;;;-0.7;87.9
50166;BME280;36071;48.140;11.516;2023-01-27T02:18:28;95530.0;;;-0.6;88.9
50166;BME280;36071;48.140;11.516;2023-01-27T02:23:33;95530.0;;;-0.7;87.3
50166;BME280;36071;48.140;11.516;2023-01-27T02:28:29;95520.0;;;-0.6;87.0
50166;BME280;36071;48.140;11.516;2023-01-27T02:33:28;95520.0;;;-0.6;86.9
50166;BME280;36071;48.140;11.516;2023-01-27T02:38:30;95460.0;;;-1.1;87.8
50166;BME280;36071;48.140;11.516;2023-01-27T02:43:28;95530.0;;;-0.7;87.0
50166;BME280;36071;48.140;11.516;2023-01-27T02:48:28;95520.0;;;-0.9;87.9
50166;BME280;36071;48.140;11.516;2023-01-27T02:53:28;95520.0;;;-0.9;87.7
50166;BME280;36071;48.140;11.516;2023-01-27T02:58:28;95520.0;;;-0.8;88.3
50166;BME280;36071;48.140;11.516;2023-01-27T03:03:28;95510.0;;;-0.9;88.5
50166;BME280;36071;48.140;11.516;2023-01-27T03:08:28;95520.0;;;-0.9;89.2
50166;BME280;36071;48.140;11.516;2023-01-27T03:13:28;95510.0;;;-0.9;88.9
50166;BME280;36071;48.140;11.516;2023-01-27T03:18:28;95520.0;;;-0.8;88.3
50166;BME280;36071;48.140;11.516;2023-01-27T03:23:28;95520.0;;;-0.9;89.5
50166;BME280;36071;48.140;11.516;2023-01-27T03:33:28;95520.0;;;-0.9;89.3
50166;BME280;36071;48.140;11.516;2023-01-27T03:38:28;95510.0;;;-1.0;89.9
50166;BME280;36071;48.140;11.516;2023-01-27T03:43:28;95510.0;;;-0.9;88.8
50166;BME280;36071;48.140;11.516;2023-01-27T03:48:28;95500.0;;;-0.8;89.3
50166;BME280;36071;48.140;11.516;2023-01-27T03:53:28;95500.0;;;-0.9;89.8
50166;BME280;36071;48.140;11.516;2023-01-27T03:58:29;95500.0;;;-0.9;89.3
50166;BME280;36071;48.140;11.516;2023-01-27T04:03:31;95510.0;;;-0.9;89.2
50166;BME280;36071;48.140;11.516;2023-01-27T04:08:28;95520.0;;;-0.9;90.7
50166;BME280;36071;48.140;11.516;2023-01-27T04:13:28;95420.0;;;-1.5;89.8
50166;BME280;36071;48.140;11.516;2023-01-27T04:18:28;95500.0;;;-1.0;90.4
50166;BME280;36071;48.140;11.516;2023-01-27T04:23:28;95500.0;;;-0.9;90.8
50166;BME280;36071;48.140;11.516;2023-01-27T04:28:28;95510.0;;;-0.9;90.9
50166;BME280;36071;48.140;11.516;2023-01-27T04:33:28;95510.0;;;-0.7;90.2
50166;BME280;36071;48.140;11.516;2023-01-27T04:38:28;95510.0;;;-0.8;90.2
50166;BME280;36071;48.140;11.516;2023-01-27T04:43:28;95520.0;;;-0.8;90.1
50166;BME280;36071;48.140;11.516;2023-01-27T04:48:28;95520.0;;;-0.8;88.7
50166;BME280;36071;48.140;11.516;2023-01-27T04:53:28;95510.0;;;-0.9;88.6
50166;BME280;36071;48.140;11.516;2023-01-27T04:58:28;95520.0;;;-0.9;89.9
50166;BME280;36071;48.140;11.516;2023-01-27T05:03:28;95520.0;;;-1.0;89.6
50166;BME280;36071;48.140;11.516;2023-01-27T05:08:28;95520.0;;;-0.9;91.2
50166;BME280;36071;48.140;11.516;2023-01-27T05:13:28;95520.0;;;-1.0;91.8
50166;BME280;36071;48.140;11.516;2023-01-27T05:18:28;95520.0;;;-1.0;90.6
50166;BME280;36071;48.140;11.516;2023-01-27T05:23:29;95520.0;;;-0.9;88.6
50166;BME280;36071;48.140;11.516;2023-01-27T05:28:28;95520.0;;;-1.0;89.3
50166;BME280;36071;48.140;11.516;2023-01-27T05:33:28;95520.0;;;-0.9;89.5
50166;BME280;36071;48.140;11.516;2023-01-27T05:38:28;95540.0;;;-0.9;88.9
50166;BME280;36071;48.140;11.516;2023-01-27T05:43:29;95540.0;;;-1.0;89.2
50166;BME280;36071;48.140;11.516;2023-01-27T05:48:28;95550.0;;;-0.9;88.6
50166;BME280;36071;48.140;11.516;2023-01-27T05:53:28;95550.0;;;-1.0;89.0
50166;BME280;36071;48.140;11.516;2023-01-27T05:58:28;95560.0;;;-0.9;89.3
50166;BME280;36071;48.140;11.516;2023-01-27T06:03:28;95560.0;;;-0.9;89.4
50166;BME280;36071;48.140;11.516;2023-01-27T06:08:28;95560.0;;;-1.0;88.8
50166;BME280;36071;48.140;11.516;2023-01-27T06:13:28;95560.0;;;-1.0;88.6
50166;BME280;36071;48.140;11.516;2023-01-27T06:18:28;95560.0;;;-1.0;89.7
50166;BME280;36071;48.140;11.516;2023-01-27T06:23:28;95570.0;;;-0.9;90.8
50166;BME280;36071;48.140;11.516;2023-01-27T06:28:28;95570.0;;;-1.0;88.1
50166;BME280;36071;48.140;11.516;2023-01-27T06:33:28;95580.0;;;-1.0;88.0
50166;BME280;36071;48.140;11.516;2023-01-27T06:38:28;95580.0;;;-0.9;88.3
50166;BME280;36071;48.140;11.516;2023-01-27T06:43:28;95580.0;;;-1.0;88.3
50166;BME280;36071;48.140;11.516;2023-01-27T06:48:28;95600.0;;;-1.0;88.8
50166;BME280;36071;48.140;11.516;2023-01-27T06:53:28;95610.0;;;-0.9;88.1
50166;BME280;36071;48.140;11.516;2023-01-27T06:58:28;95600.0;;;-0.9;88.9
50166;BME280;36071;48.140;11.516;2023-01-27T07:03:28;95610.0;;;-0.9;87.5
50166;BME280;36071;48.140;11.516;2023-01-27T07:08:28;95600.0;;;-0.9;88.3
50166;BME280;36071;48.140;11.516;2023-01-27T07:13:28;95600.0;;;-0.9;88.9
50166;BME280;36071;48.140;11.516;2023-01-27T07:18:28;95610.0;;;-0.9;88.2
50166;BME280;36071;48.140;11.516;2023-01-27T07:23:28;95600.0;;;-0.9;88.5
50166;BME280;36071;48.140;11.516;2023-01-27T07:28:28;95600.0;;;-0.9;88.9
50166;BME280;36071;48.140;11.516;2023-01-27T07:33:28;95600.0;;;-0.9;90.2
50166;BME280;36071;48.140;11.516;2023-01-27T07:38:28;95600.0;;;-0.9;90.6
50166;BME280;36071;48.140;11.516;2023-01-27T07:43:28;95600.0;;;-1.0;90.6
50166;BME280;36071;48.140;11.516;2023-01-27T07:48:28;95610.0;;;-1.0;91.1
50166;BME280;36071;48.140;11.516;2023-01-27T07:53:28;95600.0;;;-1.0;90.6
50166;BME280;36071;48.140;11.516;2023-01-27T07:58:28;95590.0;;;-0.9;90.9
50166;BME280;36071;48.140;11.516;2023-01-27T08:03:28;95590.0;;;-0.9;90.4
50166;BME280;36071;48.140;11.516;2023-01-27T08:08:28;95600.0;;;-0.8;91.1
50166;BME280;36071;48.140;11.516;2023-01-27T08:13:29;95600.0;;;-0.9;89.9
50166;BME280;36071;48.140;11.516;2023-01-27T08:18:28;95610.0;;;-0.7;90.6
50166;BME280;36071;48.140;11.516;2023-01-27T08:23:29;95610.0;;;-0.8;91.2
50166;BME280;36071;48.140;11.516;2023-01-27T08:28:29;95610.0;;;-0.8;89.8
50166;BME280;36071;48.140;11.516;2023-01-27T08:33:28;95610.0;;;-0.8;91.0
50166;BME280;36071;48.140;11.516;2023-01-27T08:38:28;95610.0;;;-0.8;89.9
50166;BME280;36071;48.140;11.516;2023-01-27T08:43:28;95620.0;;;-0.7;90.0
50166;BME280;36071;48.140;11.516;2023-01-27T08:48:28;95630.0;;;-0.8;89.7
50166;BME280;36071;48.140;11.516;2023-01-27T08:53:28;95650.0;;;-0.8;90.0
50166;BME280;36071;48.140;11.516;2023-01-27T08:58:28;95640.0;;;-0.7;89.9
50166;BME280;36071;48.140;11.516;2023-01-27T09:03:29;95650.0;;;-0.7;90.3
50166;BME280;36071;48.140;11.516;2023-01-27T09:08:28;95640.0;;;-0.6;89.6
50166;BME280;36071;48.140;11.516;2023-01-27T09:13:28;95640.0;;;-0.9;90.7
50166;BME280;36071;48.140;11.516;2023-01-27T09:18:28;95640.0;;;-0.8;90.7
50166;BME280;36071;48.140;11.516;2023-01-27T09:23:28;95650.0;;;-0.7;90.2
50166;BME280;36071;48.140;11.516;2023-01-27T09:28:28;95660.0;;;-0.7;90.3
50166;BME280;36071;48.140;11.516;2023-01-27T09:33:28;95660.0;;;-0.7;89.4
50166;BME280;36071;48.140;11.516;2023-01-27T09:38:29;95650.0;;;-0.6;89.2
50166;BME280;36071;48.140;11.516;2023-01-27T09:43:33;95660.0;;;-0.7;89.5
50166;BME280;36071;48.140;11.516;2023-01-27T09:48:32;95660.0;;;-0.6;89.7
50166;BME280;36071;48.140;11.516;2023-01-27T09:53:48;95660.0;;;-0.6;89.0
50166;BME280;36071;48.140;11.516;2023-01-27T09:58:31;95660.0;;;-0.6;88.6
50166;BME280;36071;48.140;11.516;2023-01-27T10:03:32;95650.0;;;-0.6;89.4
50166;BME280;36071;48.140;11.516;2023-01-27T10:08:40;95660.0;;;-0.6;89.1
50166;BME280;36071;48.140;11.516;2023-01-27T10:13:30;95660.0;;;-0.5;87.4
50166;BME280;36071;48.140;11.516;2023-01-27T10:18:34;95660.0;;;-0.5;88.0
50166;BME280;36071;48.140;11.516;2023-01-27T10:23:32;95660.0;;;-0.5;87.7
50166;BME280;36071;48.140;11.516;2023-01-27T10:28:28;95660.0;;;-0.6;87.4
50166;BME280;36071;48.140;11.516;2023-01-27T10:33:32;95660.0;;;-0.5;87.3
50166;BME280;36071;48.140;11.516;2023-01-27T10:38:31;95670.0;;;-0.5;87.4
50166;BME280;36071;48.140;11.516;2023-01-27T10:43:30;95670.0;;;-0.4;87.2
50166;BME280;36071;48.140;11.516;2023-01-27T10:48:32;95680.0;;;-0.4;86.4
50166;BME280;36071;48.140;11.516;2023-01-27T10:53:31;95680.0;;;-0.3;86.2
50166;BME280;36071;48.140;11.516;2023-01-27T10:58:35;95680.0;;;-0.3;84.4
50166;BME280;36071;48.140;11.516;2023-01-27T11:03:30;95680.0;;;-0.3;85.1
50166;BME280;36071;48.140;11.516;2023-01-27T11:08:29;95660.0;;;-0.4;84.4
50166;BME280;36071;48.140;11.516;2023-01-27T11:13:29;95670.0;;;-0.3;85.0
50166;BME280;36071;48.140;11.516;2023-01-27T11:18:28;95680.0;;;-0.3;84.2
50166;BME280;36071;48.140;11.516;2023-01-27T11:23:29;95660.0;;;-0.3;83.6
50166;BME280;36071;48.140;11.516;2023-01-27T11:28:30;95650.0;;;-0.2;83.1
50166;BME280;36071;48.140;11.516;2023-01-27T11:33:32;95650.0;;;-0.2;82.4
50166;BME280;36071;48.140;11.516;2023-01-27T11:38:28;95670.0;;;-0.2;82.3
50166;BME280;36071;48.140;11.516;2023-01-27T11:43:28;95660.0;;;0.0;82.7
50166;BME280;36071;48.140;11.516;2023-01-27T11:48:30;95660.0;;;-0.1;82.3
50166;BME280;36071;48.140;11.516;2023-01-27T11:53:29;95650.0;;;0.0;83.0
50166;BME280;36071;48.140;11.516;2023-01-27T11:58:29;95400.0;;;-1.5;81.9
50166;BME280;36071;48.140;11.516;2023-01-27T12:03:31;95650.0;;;0.0;82.5
50166;BME280;36071;48.140;11.516;2023-01-27T12:08:37;95650.0;;;0.0;82.2
50166;BME280;36071;48.140;11.516;2023-01-27T12:13:28;95650.0;;;0.0;81.9
50166;BME280;36071;48.140;11.516;2023-01-27T12:18:29;95640.0;;;0.1;79.4
50166;BME280;36071;48.140;11.516;2023-01-27T12:23:29;95640.0;;;0.1;79.0
50166;BME280;36071;48.140;11.516;2023-01-27T12:28:29;95640.0;;;0.2;79.9
50166;BME280;36071;48.140;11.516;2023-01-27T12:33:29;95640.0;;;0.3;79.9
50166;BME280;36071;48.140;11.516;2023-01-27T12:38:28;95640.0;;;0.3;79.1
50166;BME280;36071;48.140;11.516;2023-01-27T12:43:28;95640.0;;;0.1;79.5
50166;BME280;36071;48.140;11.516;2023-01-27T12:48:28;95640.0;;;0.1;79.1
50166;BME280;36071;48.140;11.516;2023-01-27T12:53:28;95630.0;;;0.1;79.2
50166;BME280;36071;48.140;11.516;2023-01-27T12:58:29;95630.0;;;0.1;79.4
50166;BME280;36071;48.140;11.516;2023-01-27T13:03:28;95620.0;;;0.2;79.7
50166;BME280;36071;48.140;11.516;2023-01-27T13:08:30;95620.0;;;0.2;79.3
50166;BME280;36071;48.140;11.516;2023-01-27T13:13:28;95630.0;;;0.4;79.3
50166;BME280;36071;48.140;11.516;2023-01-27T13:18:32;95620.0;;;0.4;79.2
50166;BME280;36071;48.140;11.516;2023-01-27T13:23:29;95620.0;;;0.4;79.0
50166;BME280;36071;48.140;11.516;2023-01-27T13:28:29;95620.0;;;0.5;78.4
50166;BME280;36071;48.140;11.516;2023-01-27T13:33:30;95620.0;;;0.5;77.6
50166;BME280;36071;48.140;11.516;2023-01-27T13:38:30;95620.0;;;0.3;79.5
50166;BME280;36071;48.140;11.516;2023-01-27T13:43:29;95630.0;;;0.3;78.6
50166;BME280;36071;48.140;11.516;2023-01-27T13:48:30;95620.0;;;0.4;78.6
50166;BME280;36071;48.140;11.516;2023-01-27T13:53:28;95630.0;;;0.3;79.7
50166;BME280;36071;48.140;11.516;2023-01-27T13:58:32;95630.0;;;0.4;78.1
50166;BME280;36071;48.140;11.516;2023-01-27T14:03:32;95640.0;;;0.3;79.6
50166;BME280;36071;48.140;11.516;2023-01-27T14:08:35;95640.0;;;0.3;79.4
50166;BME280;36071;48.140;11.516;2023-01-27T14:13:32;95650.0;;;0.3;79.0
50166;BME280;36071;48.140;11.516;2023-01-27T14:18:29;95640.0;;;0.2;79.2
50166;BME280;36071;48.140;11.516;2023-01-27T14:23:31;95630.0;;;0.3;78.7
50166;BME280;36071;48.140;11.516;2023-01-27T14:28:30;95630.0;;;0.2;79.7
50166;BME280;36071;48.140;11.516;2023-01-27T14:33:40;95640.0;;;0.3;78.4
50166;BME280;36071;48.140;11.516;2023-01-27T14:38:29;95640.0;;;0.3;78.8
50166;BME280;36071;48.140;11.516;2023-01-27T14:43:30;95640.0;;;0.2;78.6
50166;BME280;36071;48.140;11.516;2023-01-27T14:48:40;95650.0;;;0.1;80.2
50166;BME280;36071;48.140;11.516;2023-01-27T14:53:32;95650.0;;;0.3;78.7
50166;BME280;36071;48.140;11.516;2023-01-27T14:58:33;95660.0;;;0.2;79.6
50166;BME280;36071;48.140;11.516;2023-01-27T15:03:44;95670.0;;;0.3;79.2
50166;BME280;36071;48.140;11.516;2023-01-27T15:08:29;95660.0;;;0.3;78.6
50166;BME280;36071;48.140;11.516;2023-01-27T15:13:34;95670.0;;;0.2;79.8
50166;BME280;36071;48.140;11.516;2023-01-27T15:18:34;95680.0;;;0.3;79.0
50166;BME280;36071;48.140;11.516;2023-01-27T15:23:34;95670.0;;;0.3;77.6
50166;BME280;36071;48.140;11.516;2023-01-27T15:28:30;95680.0;;;0.3;78.3
50166;BME280;36071;48.140;11.516;2023-01-27T15:33:44;95680.0;;;0.2;78.7
50166;BME280;36071;48.140;11.516;2023-01-27T15:38:30;95690.0;;;0.3;79.1
50166;BME280;36071;48.140;11.516;2023-01-27T15:43:29;95690.0;;;0.2;79.6
50166;BME280;36071;48.140;11.516;2023-01-27T15:53:29;95700.0;;;0.2;78.7
50166;BME280;36071;48.140;11.516;2023-01-27T15:58:31;95710.0;;;0.2;80.0
50166;BME280;36071;48.140;11.516;2023-01-27T16:03:29;95710.0;;;0.2;79.6
50166;BME280;36071;48.140;11.516;2023-01-27T16:08:29;95700.0;;;0.4;84.9
50166;BME280;36071;48.140;11.516;2023-01-27T16:13:29;95710.0;;;0.3;83.6
50166;BME280;36071;48.140;11.516;2023-01-27T16:18:39;95710.0;;;0.4;84.7
50166;BME280;36071;48.140;11.516;2023-01-27T16:23:33;95710.0;;;0.2;83.0
50166;BME280;36071;48.140;11.516;2023-01-27T16:28:28;95710.0;;;0.3;84.3
50166;BME280;36071;48.140;11.516;2023-01-27T16:33:28;95710.0;;;0.3;86.0
50166;BME280;36071;48.140;11.516;2023-01-27T16:38:29;95720.0;;;0.3;85.7
50166;BME280;36071;48.140;11.516;2023-01-27T16:43:30;95720.0;;;0.2;86.0
50166;BME280;36071;48.140;11.516;2023-01-27T16:48:30;95730.0;;;0.2;85.2
50166;BME280;36071;48.140;11.516;2023-01-27T16:53:28;95650.0;;;-0.2;90.5
50166;BME280;36071;48.140;11.516;2023-01-27T16:58:28;95720.0;;;0.3;91.8
50166;BME280;36071;48.140;11.516;2023-01-27T17:03:31;95740.0;;;0.2;89.0
50166;BME280;36071;48.140;11.516;2023-01-27T17:08:29;95730.0;;;0.2;88.3
50166;BME280;36071;48.140;11.516;2023-01-27T17:13:29;95730.0;;;0.1;85.7
50166;BME280;36071;48.140;11.516;2023-01-27T17:18:28;95720.0;;;-0.1;85.7
50166;BME280;36071;48.140;11.516;2023-01-27T17:23:29;95730.0;;;0.0;85.5
50166;BME280;36071;48.140;11.516;2023-01-27T17:28:28;95740.0;;;0.0;86.2
50166;BME280;36071;48.140;11.516;2023-01-27T17:33:28;95740.0;;;0.0;85.6
50166;BME280;36071;48.140;11.516;2023-01-27T17:38:34;95750.0;;;0.0;87.8
50166;BME280;36071;48.140;11.516;2023-01-27T17:43:29;95760.0;;;0.0;86.5
50166;BME280;36071;48.140;11.516;2023-01-27T17:48:28;95760.0;;;0.0;85.3
50166;BME280;36071;48.140;11.516;2023-01-27T17:53:28;95760.0;;;0.1;87.4
50166;BME280;36071;48.140;11.516;2023-01-27T17:58:28;95770.0;;;0.1;85.7
50166;BME280;36071;48.140;11.516;2023-01-27T18:03:29;95770.0;;;0.1;84.9
50166;BME280;36071;48.140;11.516;2023-01-27T18:08:31;95770.0;;;0.1;84.6
50166;BME280;36071;48.140;11.516;2023-01-27T18:13:36;95780.0;;;0.1;84.8
50166;BME280;36071;48.140;11.516;2023-01-27T18:18:29;95790.0;;;0.1;84.1
50166;BME280;36071;48.140;11.516;2023-01-27T18:23:29;95780.0;;;0.1;84.5
50166;BME280;36071;48.140;11.516;2023-01-27T18:28:30;95790.0;;;0.0;84.3
50166;BME280;36071;48.140;11.516;2023-01-27T18:33:29;95790.0;;;-0.1;84.6
50166;BME280;36071;48.140;11.516;2023-01-27T18:38:29;95790.0;;;0.0;84.3
50166;BME280;36071;48.140;11.516;2023-01-27T18:43:28;95790.0;;;0.0;84.8
50166;BME280;36071;48.140;11.516;2023-01-27T18:48:28;95790.0;;;0.0;86.0
50166;BME280;36071;48.140;11.516;2023-01-27T18:53:35;95790.0;;;-0.1;87.5
50166;BME280;36071;48.140;11.516;2023-01-27T18:58:28;95790.0;;;0.0;85.8
50166;BME280;36071;48.140;11.516;2023-01-27T19:03:28;95790.0;;;-0.1;85.6
50166;BME280;36071;48.140;11.516;2023-01-27T19:08:28;95800.0;;;-0.1;86.3
50166;BME280;36071;48.140;11.516;2023-01-27T19:13:28;95790.0;;;0.0;87.1
50166;BME280;36071;48.140;11.516;2023-01-27T19:18:30;95790.0;;;-0.1;86.0
50166;BME280;36071;48.140;11.516;2023-01-27T19:23:28;95780.0;;;0.0;86.6
50166;BME280;36071;48.140;11.516;2023-01-27T19:28:29;95790.0;;;0.0;86.9
50166;BME280;36071;48.140;11.516;2023-01-27T19:33:28;95790.0;;;0.0;87.3
50166;BME280;36071;48.140;11.516;2023-01-27T19:38:28;95790.0;;;0.1;88.1
50166;BME280;36071;48.140;11.516;2023-01-27T19:43:28;95800.0;;;0.0;87.0
50166;BME280;36071;48.140;11.516;2023-01-27T19:48:28;95800.0;;;-0.1;85.9
50166;BME280;36071;48.140;11.516;2023-01-27T19:53:28;95810.0;;;0.0;85.7
50166;BME280;36071;48.140;11.516;2023-01-27T19:58:28;95810.0;;;-0.1;84.7
50166;BME280;36071;48.140;11.516;2023-01-27T20:03:28;95810.0;;;-0.1;85.2
50166;BME280;36071;48.140;11.516;2023-01-27T20:08:28;95810.0;;;0.0;85.1
50166;BME280;36071;48.140;11.516;2023-01-27T20:13:28;95810.0;;;-0.1;83.1
50166;BME280;36071;48.140;11.516;2023-01-27T20:18:28;95810.0;;;-0.2;83.8
50166;BME280;36071;48.140;11.516;2023-01-27T20:23:28;95820.0;;;-0.2;82.9
50166;BME280;36071;48.140;11.516;2023-01-27T20:28:28;95820.0;;;-0.1;83.1
50166;BME280;36071;48.140;11.516;2023-01-27T20:33:28;95820.0;;;-0.2;82.9
50166;BME280;36071;48.140;11.516;2023-01-27T20:38:28;95830.0;;;-0.1;81.2
50166;BME280;36071;48.140;11.516;2023-01-27T20:43:28;95830.0;;;-0.1;82.6
50166;BME280;36071;48.140;11.516;2023-01-27T20:48:28;95830.0;;;-0.2;81.4
50166;BME280;36071;48.140;11.516;2023-01-27T20:53:29;95820.0;;;-0.1;81.6
50166;BME280;36071;48.140;11.516;2023-01-27T20:58:29;95830.0;;;-0.1;80.5
50166;BME280;36071;48.140;11.516;2023-01-27T21:03:28;95840.0;;;-0.2;80.9
50166;BME280;36071;48.140;11.516;2023-01-27T21:08:28;95840.0;;;-0.2;81.1
50166;BME280;36071;48.140;11.516;2023-01-27T21:13:28;95830.0;;;-0.1;81.0
50166;BME280;36071;48.140;11.516;2023-01-27T21:18:28;95850.0;;;-0.2;81.2
50166;BME280;36071;48.140;11.516;2023-01-27T21:28:28;95850.0;;;-0.3;81.7
50166;BME280;36071;48.140;11.516;2023-01-27T21:33:28;95850.0;;;-0.3;81.2
50166;BME280;36071;48.140;11.516;2023-01-27T21:38:28;95850.0;;;-0.3;81.5
50166;BME280;36071;48.140;11.516;2023-01-27T21:43:28;95850.0;;;-0.3;81.6
50166;BME280;36071;48.140;11.516;2023-01-27T21:48:28;95850.0;;;-0.3;82.0
50166;BME280;36071;48.140;11.516;2023-01-27T21:53:28;95850.0;;;-0.3;81.7
50166;BME280;36071;48.140;11.516;2023-01-27T21:58:28;95860.0;;;-0.4;82.2
50166;BME280;36071;48.140;11.516;2023-01-27T22:03:28;95850.0;;;-0.3;82.7
50166;BME280;36071;48.140;11.516;2023-01-27T22:08:28;95840.0;;;-0.3;82.8
50166;BME280;36071;48.140;11.516;2023-01-27T22:13:28;95850.0;;;-0.4;82.8
50166;BME280;36071;48.140;11.516;2023-01-27T22:18:28;95850.0;;;-0.3;83.3
50166;BME280;36071;48.140;11.516;2023-01-27T22:23:28;95850.0;;;-0.3;82.1
50166;BME280;36071;48.140;11.516;2023-01-27T22:28:28;95840.0;;;-0.3;82.2
50166;BME280;36071;48.140;11.516;2023-01-27T22:33:28;95850.0;;;-0.3;82.0
50166;BME280;36071;48.140;11.516;2023-01-27T22:38:28;95850.0;;;-0.4;81.8
50166;BME280;36071;48.140;11.516;2023-01-27T22:43:28;95830.0;;;-0.4;81.8
50166;BME280;36071;48.140;11.516;2023-01-27T22:48:29;95840.0;;;-0.4;81.8
50166;BME280;36071;48.140;11.516;2023-01-27T22:53:28;95830.0;;;-0.4;81.9
50166;BME280;36071;48.140;11.516;2023-01-27T22:58:28;95830.0;;;-0.4;82.4
50166;BME280;36071;48.140;11.516;2023-01-27T23:03:28;95830.0;;;-0.4;82.0
50166;BME280;36071;48.140;11.516;2023-01-27T23:08:28;95830.0;;;-0.3;82.1
50166;BME280;36071;48.140;11.516;2023-01-27T23:13:28;95830.0;;;-0.5;82.2
50166;BME280;36071;48.140;11.516;2023-01-27T23:18:28;95830.0;;;-0.4;82.2
50166;BME280;36071;48.140;11.516;2023-01-27T23:23:28;95840.0;;;-0.5;82.7
50166;BME280;36071;48.140;11.516;2023-01-27T23:28:28;95830.0;;;-0.4;82.4
50166;BME280;36071;48.140;11.516;2023-01-27T23:33:31;95810.0;;;-0.4;81.8
50166;BME280;36071;48.140;11.516;2023-01-27T23:38:28;95790.0;;;-0.7;83.0
50166;BME280;36071;48.140;11.516;2023-01-27T23:43:32;95830.0;;;-0.5;81.6
50166;BME280;36071;48.140;11.516;2023-01-27T23:48:28;95840.0;;;-0.4;81.9
50166;BME280;36071;48.140;11.516;2023-01-27T23:53:28;95760.0;;;-1.1;82.1
50166;BME280;36071;48.140;11.516;2023-01-27T23:58:28;95840.0;;;-0.5;82.6
